Time;durP1;ratioP1;P1;durP2;ratioP2;P2;SDS_P1;SDS_P2;PMS_P1;PMS_P2;Temp;Humidity;BMP_temperature;BMP_pressure;BME280_temperature;BME280_humidity;BME280_pressure;Samples;Min_cycle;Max_cycle;Signal;HPM_P1;HPM_P2
2024/04/19 00:01:38;;;;;;;;;;;20.60;50.50;;;;;;1549148;75;1938;-71
2024/04/19 00:03:40;;;;;;;;;;;20.70;50.70;;;;;;1547857;74;721;-70
2024/04/19 00:05:42;;;;;;;;;;;20.60;50.50;;;;;;1555691;74;735;-68
2024/04/19 00:07:44;;;;;;;;;;;20.70;50.70;;;;;;1553329;74;700;-71
2024/04/19 00:09:46;;;;;;;;;;;20.70;50.70;;;;;;1548248;74;1156;-68
2024/04/19 00:11:47;;;;;;;;;;;20.60;50.70;;;;;;1549651;74;785;-70
2024/04/19 00:13:49;;;;;;;;;;;20.60;50.70;;;;;;1552695;74;1485;-71
2024/04/19 00:15:51;;;;;;;;;;;20.60;50.70;;;;;;1549428;76;780;-70
2024/04/19 00:17:53;;;;;;;;;;;20.60;50.70;;;;;;1511214;76;734;-72
2024/04/19 00:19:55;;;;;;;;;;;20.70;50.80;;;;;;1493386;78;1193;-70
2024/04/19 00:21:57;;;;;;;;;;;20.60;50.70;;;;;;1499859;78;1938;-70
2024/04/19 00:23:59;;;;;;;;;;;20.60;50.70;;;;;;1500740;78;801;-69
2024/04/19 00:26:01;;;;;;;;;;;20.60;50.80;;;;;;1499183;78;732;-69
2024/04/19 00:28:03;;;;;;;;;;;20.60;50.80;;;;;;1504212;78;1623;-68
2024/04/19 00:30:05;;;;;;;;;;;20.60;50.80;;;;;;1498424;78;1212;-69
2024/04/19 00:32:07;;;;;;;;;;;20.60;50.80;;;;;;1499250;78;612;-70
2024/04/19 00:34:09;;;;;;;;;;;20.60;50.80;;;;;;1502423;78;857;-69
2024/04/19 00:36:11;;;;;;;;;;;20.60;50.80;;;;;;1512975;78;705;-72
2024/04/19 00:38:12;;;;;;;;;;;20.60;50.90;;;;;;1509885;78;677;-69
2024/04/19 00:40:14;;;;;;;;;;;20.60;50.80;;;;;;1500950;78;1102;-70
2024/04/19 00:42:16;;;;;;;;;;;20.60;50.90;;;;;;1514414;76;1945;-70
2024/04/19 00:44:18;;;;;;;;;;;20.60;50.80;;;;;;1497370;78;636;-70
2024/04/19 00:46:20;;;;;;;;;;;20.60;50.90;;;;;;1553038;74;736;-72
2024/04/19 00:48:22;;;;;;;;;;;20.60;50.90;;;;;;1550748;75;770;-69
2024/04/19 00:50:24;;;;;;;;;;;20.60;50.90;;;;;;1547264;74;1137;-70
2024/04/19 00:52:26;;;;;;;;;;;20.60;50.90;;;;;;1550239;74;650;-70
2024/04/19 00:54:28;;;;;;;;;;;20.60;51.00;;;;;;1543125;75;682;-70
2024/04/19 00:56:30;;;;;;;;;;;20.60;51.00;;;;;;1554957;74;1538;-72
2024/04/19 00:58:32;;;;;;;;;;;20.60;50.90;;;;;;1556640;74;698;-70
2024/04/19 01:00:34;;;;;;;;;;;20.60;51.00;;;;;;1543949;75;1150;-68
2024/04/19 01:02:36;;;;;;;;;;;20.50;51.00;;;;;;1543505;76;1913;-69
2024/04/19 01:04:38;;;;;;;;;;;20.60;51.00;;;;;;1553054;74;677;-66
2024/04/19 01:06:40;;;;;;;;;;;20.60;50.90;;;;;;1543208;75;806;-69
2024/04/19 01:08:42;;;;;;;;;;;20.60;51.00;;;;;;1557441;74;741;-70
2024/04/19 01:10:44;;;;;;;;;;;20.60;51.00;;;;;;1556525;75;1338;-68
2024/04/19 01:12:46;;;;;;;;;;;20.60;51.00;;;;;;1549465;74;682;-69
2024/04/19 01:14:48;;;;;;;;;;;20.60;51.00;;;;;;1545264;75;738;-68
2024/04/19 01:16:50;;;;;;;;;;;20.60;51.00;;;;;;1552892;74;714;-68
2024/04/19 01:18:52;;;;;;;;;;;20.60;51.10;;;;;;1554221;74;738;-69
2024/04/19 01:20:54;;;;;;;;;;;20.60;51.00;;;;;;1554878;75;1156;-69
2024/04/19 01:22:56;;;;;;;;;;;20.60;51.00;;;;;;1548659;74;1959;-69
2024/04/19 01:24:57;;;;;;;;;;;20.60;51.00;;;;;;1551867;74;1557;-69
2024/04/19 01:26:59;;;;;;;;;;;20.60;51.00;;;;;;1550398;74;703;-67
2024/04/19 01:29:01;;;;;;;;;;;20.60;51.00;;;;;;1552709;75;655;-71
2024/04/19 01:31:03;;;;;;;;;;;20.60;51.00;;;;;;1547457;75;1120;-70
2024/04/19 01:33:05;;;;;;;;;;;20.60;51.00;;;;;;1560315;75;648;-69
2024/04/19 01:35:07;;;;;;;;;;;20.60;51.00;;;;;;1550536;75;684;-72
2024/04/19 01:37:09;;;;;;;;;;;20.60;51.00;;;;;;1548347;74;724;-71
2024/04/19 01:39:11;;;;;;;;;;;20.60;51.00;;;;;;1547579;74;659;-69
2024/04/19 01:41:12;;;;;;;;;;;20.60;51.10;;;;;;1549780;74;789;-70
2024/04/19 01:43:14;;;;;;;;;;;20.60;51.10;;;;;;1554767;75;1932;-70
2024/04/19 01:45:16;;;;;;;;;;;20.60;51.10;;;;;;1549122;74;739;-69
2024/04/19 01:47:18;;;;;;;;;;;20.60;51.10;;;;;;1551231;74;647;-70
2024/04/19 01:49:20;;;;;;;;;;;20.60;51.20;;;;;;1556239;75;1197;-70
2024/04/19 01:51:22;;;;;;;;;;;20.60;51.10;;;;;;1548516;74;1559;-72
2024/04/19 01:53:24;;;;;;;;;;;20.60;51.20;;;;;;1558222;74;752;-70
2024/04/19 01:55:26;;;;;;;;;;;20.60;51.20;;;;;;1555758;74;697;-70
2024/04/19 01:57:28;;;;;;;;;;;20.50;51.20;;;;;;1549956;74;770;-70
2024/04/19 01:59:29;;;;;;;;;;;20.60;51.20;;;;;;1547763;75;1147;-69
2024/04/19 02:01:31;;;;;;;;;;;20.60;51.20;;;;;;1555665;74;693;-70
2024/04/19 02:03:33;;;;;;;;;;;20.60;51.20;;;;;;1550099;75;679;-70
2024/04/19 02:05:35;;;;;;;;;;;20.60;51.20;;;;;;1557336;74;1580;-70
2024/04/19 02:07:37;;;;;;;;;;;20.50;51.20;;;;;;1557026;76;696;-71
2024/04/19 02:09:39;;;;;;;;;;;20.60;51.20;;;;;;1557685;74;1104;-71
2024/04/19 02:11:41;;;;;;;;;;;20.60;51.20;;;;;;1554347;75;690;-69
2024/04/19 02:13:45;;;;;;;;;;;20.60;51.30;;;;;;1551206;74;721;-71
2024/04/19 02:15:47;;;;;;;;;;;20.60;51.30;;;;;;1552484;74;693;-71
2024/04/19 02:17:49;;;;;;;;;;;20.60;51.30;;;;;;1547292;75;698;-70
2024/04/19 02:19:51;;;;;;;;;;;20.60;51.30;;;;;;1549688;74;1637;-69
2024/04/19 02:21:53;;;;;;;;;;;20.60;51.30;;;;;;1544880;75;1933;-71
2024/04/19 02:23:55;;;;;;;;;;;20.60;51.30;;;;;;1560404;74;795;-69
2024/04/19 02:25:57;;;;;;;;;;;20.60;51.30;;;;;;1555902;74;664;-69
2024/04/19 02:32:38;;;;;;;;;;;20.50;51.40;;;;;;1559108;74;682;-69
2024/04/19 02:34:42;;;;;;;;;;;20.60;51.40;;;;;;1550856;74;1373;-70
2024/04/19 02:36:44;;;;;;;;;;;20.50;51.40;;;;;;1548467;75;982;-70
2024/04/19 02:38:46;;;;;;;;;;;20.50;51.40;;;;;;1560130;74;599;-70
2024/04/19 02:40:48;;;;;;;;;;;20.60;51.40;;;;;;1552691;74;1150;-69
2024/04/19 02:42:50;;;;;;;;;;;20.70;51.50;;;;;;1555797;74;1950;-71
2024/04/19 02:44:51;;;;;;;;;;;20.50;51.40;;;;;;1554765;74;661;-69
2024/04/19 02:46:53;;;;;;;;;;;20.50;51.40;;;;;;1553365;74;699;-70
2024/04/19 02:48:55;;;;;;;;;;;20.60;51.40;;;;;;1548312;74;1554;-69
2024/04/19 02:50:57;;;;;;;;;;;20.60;51.40;;;;;;1551759;74;1126;-69
2024/04/19 02:52:59;;;;;;;;;;;20.50;51.40;;;;;;1556302;74;734;-70
2024/04/19 02:55:01;;;;;;;;;;;20.60;51.50;;;;;;1537885;75;618;-71
2024/04/19 02:57:03;;;;;;;;;;;20.60;51.50;;;;;;1546527;75;753;-70
2024/04/19 02:59:05;;;;;;;;;;;20.50;51.40;;;;;;1559325;75;716;-69
2024/04/19 03:01:07;;;;;;;;;;;20.60;51.40;;;;;;1552577;74;1112;-71
2024/04/19 03:03:09;;;;;;;;;;;20.50;51.50;;;;;;1549495;74;1952;-69
2024/04/19 03:05:11;;;;;;;;;;;20.60;51.50;;;;;;1549614;75;675;-70
2024/04/19 03:07:12;;;;;;;;;;;20.60;51.50;;;;;;1554987;74;751;-70
2024/04/19 03:09:14;;;;;;;;;;;20.60;51.50;;;;;;1545899;74;1139;-68
2024/04/19 03:11:16;;;;;;;;;;;20.60;51.50;;;;;;1552189;74;685;-70
2024/04/19 03:13:18;;;;;;;;;;;20.50;51.50;;;;;;1558416;75;752;-71
2024/04/19 03:15:20;;;;;;;;;;;20.60;51.50;;;;;;1549221;75;626;-70
2024/04/19 03:17:22;;;;;;;;;;;20.60;51.40;;;;;;1559587;74;1489;-70
2024/04/19 03:19:24;;;;;;;;;;;20.50;51.40;;;;;;1547326;74;1134;-69
2024/04/19 03:21:26;;;;;;;;;;;20.50;51.50;;;;;;1550879;75;691;-69
2024/04/19 03:23:28;;;;;;;;;;;20.60;51.50;;;;;;1553415;74;1943;-68
2024/04/19 03:25:30;;;;;;;;;;;20.60;51.50;;;;;;1544020;74;667;-70
2024/04/19 03:27:32;;;;;;;;;;;20.60;51.40;;;;;;1544999;76;1130;-69
2024/04/19 03:29:33;;;;;;;;;;;20.60;51.50;;;;;;1555362;74;1085;-69
2024/04/19 03:31:35;;;;;;;;;;;20.60;51.50;;;;;;1552727;74;1634;-69
2024/04/19 03:33:37;;;;;;;;;;;20.50;51.50;;;;;;1549632;74;703;-71
2024/04/19 03:35:42;;;;;;;;;;;20.50;51.50;;;;;;1554063;74;703;-68
2024/04/19 03:37:44;;;;;;;;;;;20.50;51.60;;;;;;1548111;74;696;-70
2024/04/19 03:39:46;;;;;;;;;;;20.60;51.60;;;;;;1548049;74;1091;-70
2024/04/19 03:41:50;;;;;;;;;;;20.50;51.60;;;;;;1553406;74;810;-69
2024/04/19 03:46:11;;;;;;;;;;;20.50;51.70;;;;;;1549388;74;1649;-69
2024/04/19 03:48:13;;;;;;;;;;;20.50;51.70;;;;;;1544354;74;731;-69
2024/04/19 03:50:15;;;;;;;;;;;20.60;51.60;;;;;;1554721;74;1194;-69
2024/04/19 03:52:17;;;;;;;;;;;20.60;51.70;;;;;;1552086;75;644;-70
2024/04/19 03:54:19;;;;;;;;;;;20.60;51.60;;;;;;1547104;74;749;-69
2024/04/19 03:56:20;;;;;;;;;;;20.50;51.70;;;;;;1552981;74;626;-69
2024/04/19 03:58:22;;;;;;;;;;;20.60;51.70;;;;;;1550537;74;1560;-69
2024/04/19 04:00:25;;;;;;;;;;;20.60;51.70;;;;;;1554715;74;1123;-68
2024/04/19 04:02:27;;;;;;;;;;;20.50;51.80;;;;;;1553749;74;1913;-67
2024/04/19 04:04:29;;;;;;;;;;;20.60;51.80;;;;;;1556339;74;764;-70
2024/04/19 04:06:31;;;;;;;;;;;20.50;51.80;;;;;;1553179;75;672;-73
2024/04/19 04:08:33;;;;;;;;;;;20.60;51.70;;;;;;1553769;74;654;-71
2024/04/19 04:10:35;;;;;;;;;;;20.60;51.70;;;;;;1553706;75;1129;-72
2024/04/19 04:12:37;;;;;;;;;;;20.60;51.70;;;;;;1555169;74;1248;-70
2024/04/19 04:14:39;;;;;;;;;;;20.60;51.70;;;;;;1553535;74;610;-71
2024/04/19 04:16:41;;;;;;;;;;;20.60;51.70;;;;;;1548429;75;650;-70
2024/04/19 04:18:43;;;;;;;;;;;20.60;51.70;;;;;;1552384;75;700;-73
2024/04/19 04:20:45;;;;;;;;;;;20.60;51.80;;;;;;1556830;74;1155;-73
2024/04/19 04:22:47;;;;;;;;;;;20.50;51.70;;;;;;1549723;74;1962;-71
2024/04/19 04:24:48;;;;;;;;;;;20.50;51.70;;;;;;1550826;75;658;-68
2024/04/19 04:26:50;;;;;;;;;;;20.70;51.80;;;;;;1550108;74;1313;-71
2024/04/19 04:28:52;;;;;;;;;;;20.60;51.90;;;;;;1545041;74;715;-69
2024/04/19 04:30:54;;;;;;;;;;;20.60;52.00;;;;;;1556454;74;1078;-69
2024/04/19 04:32:56;;;;;;;;;;;20.60;52.10;;;;;;1552093;75;753;-72
2024/04/19 04:34:58;;;;;;;;;;;20.60;52.30;;;;;;1553708;75;689;-73
2024/04/19 04:37:00;;;;;;;;;;;20.50;52.30;;;;;;1550752;74;684;-72
2024/04/19 04:39:02;;;;;;;;;;;20.60;52.50;;;;;;1547950;74;752;-69
2024/04/19 04:41:03;;;;;;;;;;;20.60;52.40;;;;;;1548642;75;1608;-71
2024/04/19 04:43:05;;;;;;;;;;;20.50;52.60;;;;;;1555794;74;1940;-69
2024/04/19 04:45:07;;;;;;;;;;;20.60;52.70;;;;;;1552923;74;678;-70
2024/04/19 04:47:09;;;;;;;;;;;20.50;52.80;;;;;;1554011;74;672;-69
2024/04/19 04:49:11;;;;;;;;;;;20.60;52.80;;;;;;1549505;74;882;-70
2024/04/19 04:51:13;;;;;;;;;;;20.70;53.00;;;;;;1543728;74;1136;-71
2024/04/19 04:53:16;;;;;;;;;;;20.60;52.80;;;;;;1548240;75;729;-69
2024/04/19 04:55:18;;;;;;;;;;;20.60;53.00;;;;;;1553365;75;1542;-69
2024/04/19 04:57:20;;;;;;;;;;;20.60;53.10;;;;;;1551385;75;697;-70
2024/04/19 04:59:22;;;;;;;;;;;20.60;53.00;;;;;;1550331;75;1137;-70
2024/04/19 05:01:24;;;;;;;;;;;20.60;53.20;;;;;;1558286;75;792;-69
2024/04/19 05:03:27;;;;;;;;;;;20.60;53.30;;;;;;1551769;74;1946;-73
2024/04/19 05:05:38;;;;;;;;;;;20.70;53.40;;;;;;1555821;74;797;-71
2024/04/19 05:07:46;;;;;;;;;;;20.60;53.00;;;;;;1553376;74;1600;-67
2024/04/19 05:09:51;;;;;;;;;;;20.60;53.10;;;;;;1551226;75;1568;-69
2024/04/19 05:11:53;;;;;;;;;;;20.70;53.20;;;;;;1524937;76;701;-70
2024/04/19 05:13:55;;;;;;;;;;;20.60;53.00;;;;;;1558070;74;793;-70
2024/04/19 05:15:57;;;;;;;;;;;20.60;53.00;;;;;;1519157;76;655;-70
2024/04/19 05:17:58;;;;;;;;;;;20.60;52.90;;;;;;1489846;78;681;-71
2024/04/19 05:20:00;;;;;;;;;;;20.60;53.00;;;;;;1494992;78;1176;-69
2024/04/19 05:22:02;;;;;;;;;;;20.60;52.90;;;;;;1498959;78;781;-69
2024/04/19 05:24:04;;;;;;;;;;;20.70;53.10;;;;;;1510416;76;1952;-73
2024/04/19 05:26:06;;;;;;;;;;;20.60;52.80;;;;;;1517174;76;686;-69
2024/04/19 05:28:08;;;;;;;;;;;20.60;52.80;;;;;;1498409;78;653;-69
2024/04/19 05:30:10;;;;;;;;;;;20.50;52.80;;;;;;1553956;74;1156;-70
2024/04/19 05:32:12;;;;;;;;;;;20.60;52.70;;;;;;1555857;74;692;-68
2024/04/19 05:34:14;;;;;;;;;;;20.60;52.80;;;;;;1556308;75;778;-73
2024/04/19 05:36:16;;;;;;;;;;;20.50;52.70;;;;;;1556254;74;1564;-68
2024/04/19 05:38:17;;;;;;;;;;;20.60;52.70;;;;;;1557414;74;726;-70
2024/04/19 05:40:19;;;;;;;;;;;20.60;52.70;;;;;;1558734;74;1121;-68
2024/04/19 05:42:21;;;;;;;;;;;20.60;52.60;;;;;;1550054;74;781;-69
2024/04/19 05:44:25;;;;;;;;;;;20.50;52.60;;;;;;1559211;74;1942;-70
2024/04/19 05:46:27;;;;;;;;;;;20.60;52.60;;;;;;1555814;74;942;-70
2024/04/19 05:48:29;;;;;;;;;;;20.60;52.60;;;;;;1556167;75;672;-73
2024/04/19 05:50:31;;;;;;;;;;;20.60;52.60;;;;;;1556932;75;1604;-71
2024/04/19 05:52:33;;;;;;;;;;;20.50;52.50;;;;;;1554012;74;742;-71
2024/04/19 05:54:35;;;;;;;;;;;20.50;52.50;;;;;;1556704;74;729;-72
2024/04/19 05:56:37;;;;;;;;;;;20.50;52.40;;;;;;1554790;74;715;-71
2024/04/19 05:58:39;;;;;;;;;;;20.50;52.50;;;;;;1556744;74;686;-71
2024/04/19 06:00:41;;;;;;;;;;;20.60;52.50;;;;;;1555739;74;1126;-71
2024/04/19 06:02:43;;;;;;;;;;;20.60;52.40;;;;;;1556507;74;716;-69
2024/04/19 06:04:45;;;;;;;;;;;20.50;52.30;;;;;;1552150;74;1946;-68
2024/04/19 06:06:46;;;;;;;;;;;20.60;52.30;;;;;;1560811;75;655;-71
2024/04/19 06:08:48;;;;;;;;;;;20.60;52.30;;;;;;1550956;74;696;-70
2024/04/19 06:10:50;;;;;;;;;;;20.50;52.30;;;;;;1550817;74;1072;-71
2024/04/19 06:12:53;;;;;;;;;;;20.50;52.30;;;;;;1554459;75;760;-68
2024/04/19 06:14:55;;;;;;;;;;;20.50;52.30;;;;;;1552938;74;661;-70
2024/04/19 06:16:56;;;;;;;;;;;20.50;52.30;;;;;;1550091;74;700;-68
2024/04/19 06:18:58;;;;;;;;;;;20.60;52.20;;;;;;1559747;74;1301;-72
2024/04/19 06:21:00;;;;;;;;;;;20.60;52.20;;;;;;1559632;74;1157;-68
2024/04/19 06:23:02;;;;;;;;;;;20.50;52.10;;;;;;1552138;75;676;-70
2024/04/19 06:25:04;;;;;;;;;;;20.60;52.10;;;;;;1558421;74;1939;-69
2024/04/19 06:27:06;;;;;;;;;;;20.50;52.00;;;;;;1558627;74;688;-70
2024/04/19 06:29:08;;;;;;;;;;;20.50;51.90;;;;;;1558240;74;662;-67
2024/04/19 06:31:10;;;;;;;;;;;20.40;51.80;;;;;;1553762;74;1069;-68
2024/04/19 06:33:12;;;;;;;;;;;20.50;51.90;;;;;;1557331;74;1568;-72
2024/04/19 06:35:16;;;;;;;;;;;20.50;51.80;;;;;;1554123;75;683;-70
2024/04/19 06:37:18;;;;;;;;;;;20.40;51.70;;;;;;1550681;74;757;-68
2024/04/19 06:39:23;;;;;;;;;;;20.40;51.60;;;;;;1555530;75;1152;-68
2024/04/19 06:41:25;;;;;;;;;;;20.50;51.70;;;;;;1551307;76;668;-70
2024/04/19 06:43:27;;;;;;;;;;;20.50;51.60;;;;;;1555619;74;1942;-72
2024/04/19 06:45:29;;;;;;;;;;;20.50;51.60;;;;;;1557170;74;658;-68
2024/04/19 06:47:33;;;;;;;;;;;20.50;51.50;;;;;;1553152;74;1614;-68
2024/04/19 06:49:35;;;;;;;;;;;20.50;51.50;;;;;;1558562;74;1154;-69
2024/04/19 06:51:37;;;;;;;;;;;20.40;51.40;;;;;;1551564;74;644;-73
2024/04/19 06:53:39;;;;;;;;;;;20.50;51.50;;;;;;1556174;74;795;-71
2024/04/19 06:55:42;;;;;;;;;;;20.50;51.40;;;;;;1553306;74;687;-69
2024/04/19 06:57:43;;;;;;;;;;;20.50;51.40;;;;;;1553672;74;752;-65
2024/04/19 06:59:45;;;;;;;;;;;20.50;51.40;;;;;;1554979;74;1134;-67
2024/04/19 07:01:47;;;;;;;;;;;20.50;51.30;;;;;;1550205;75;1584;-68
2024/04/19 07:03:51;;;;;;;;;;;20.40;51.30;;;;;;1548767;75;1904;-68
2024/04/19 07:05:53;;;;;;;;;;;20.50;51.30;;;;;;1552535;74;685;-67
2024/04/19 07:07:55;;;;;;;;;;;20.50;51.30;;;;;;1549688;74;602;-69
2024/04/19 07:09:56;;;;;;;;;;;20.40;51.20;;;;;;1544503;74;1153;-71
2024/04/19 07:11:58;;;;;;;;;;;20.50;51.30;;;;;;1549337;74;738;-68
2024/04/19 07:14:00;;;;;;;;;;;20.50;51.30;;;;;;1552064;74;683;-70
2024/04/19 07:16:02;;;;;;;;;;;20.50;51.20;;;;;;1553397;74;1374;-68
2024/04/19 07:18:05;;;;;;;;;;;20.50;51.20;;;;;;1555548;74;963;-68
2024/04/19 07:20:08;;;;;;;;;;;20.50;51.20;;;;;;1548949;75;1146;-71
2024/04/19 07:22:09;;;;;;;;;;;20.50;51.20;;;;;;1557328;74;649;-70
2024/04/19 07:24:11;;;;;;;;;;;20.50;51.10;;;;;;1552578;75;1942;-71
2024/04/19 07:26:13;;;;;;;;;;;20.50;51.10;;;;;;1553616;75;773;-69
2024/04/19 07:28:15;;;;;;;;;;;20.50;51.10;;;;;;1550356;74;665;-67
2024/04/19 07:30:17;;;;;;;;;;;20.40;51.00;;;;;;1551114;74;1580;-68
2024/04/19 07:32:20;;;;;;;;;;;20.40;51.00;;;;;;1551024;74;677;-68
2024/04/19 07:34:24;;;;;;;;;;;20.50;51.00;;;;;;1554579;76;681;-70
2024/04/19 07:36:26;;;;;;;;;;;20.40;51.00;;;;;;1549809;75;1718;-68
2024/04/19 07:38:28;;;;;;;;;;;20.50;51.00;;;;;;1557015;74;728;-70
2024/04/19 07:40:30;;;;;;;;;;;20.40;50.90;;;;;;1552492;75;1140;-68
2024/04/19 07:42:32;;;;;;;;;;;20.30;50.90;;;;;;1551488;74;715;-69
2024/04/19 07:44:34;;;;;;;;;;;20.80;51.10;;;;;;1548662;74;1928;-73
2024/04/19 07:46:36;;;;;;;;;;;20.50;51.00;;;;;;1550743;74;687;-68
2024/04/19 07:48:38;;;;;;;;;;;20.40;50.90;;;;;;1544521;75;668;-68
2024/04/19 07:50:40;;;;;;;;;;;20.40;50.80;;;;;;1556816;75;1079;-69
2024/04/19 07:52:42;;;;;;;;;;;20.40;50.90;;;;;;1556581;74;778;-68
2024/04/19 07:54:45;;;;;;;;;;;20.40;50.80;;;;;;1554897;75;722;-71
2024/04/19 07:56:47;;;;;;;;;;;20.40;50.80;;;;;;1551911;74;822;-68
2024/04/19 07:58:48;;;;;;;;;;;20.50;50.90;;;;;;1559240;74;1678;-68
2024/04/19 08:00:50;;;;;;;;;;;20.40;50.70;;;;;;1551175;74;1106;-70
2024/04/19 08:02:52;;;;;;;;;;;20.40;50.80;;;;;;1552576;74;759;-71
2024/04/19 08:04:54;;;;;;;;;;;20.40;50.70;;;;;;1540079;74;1936;-70
2024/04/19 08:06:56;;;;;;;;;;;20.40;50.80;;;;;;1553821;74;770;-67
2024/04/19 08:08:58;;;;;;;;;;;20.40;50.70;;;;;;1559872;74;724;-68
2024/04/19 08:11:01;;;;;;;;;;;20.40;50.70;;;;;;1559375;74;1624;-68
2024/04/19 08:13:04;;;;;;;;;;;20.90;51.00;;;;;;1557040;74;692;-70
2024/04/19 08:15:06;;;;;;;;;;;20.50;50.80;;;;;;1551936;74;673;-70
2024/04/19 08:17:08;;;;;;;;;;;20.40;50.70;;;;;;1555317;75;702;-69
2024/04/19 08:19:10;;;;;;;;;;;20.40;50.70;;;;;;1558495;74;665;-69
2024/04/19 08:21:12;;;;;;;;;;;20.40;50.70;;;;;;1555948;75;1106;-69
2024/04/19 08:23:14;;;;;;;;;;;20.40;50.70;;;;;;1554313;74;713;-68
2024/04/19 08:25:16;;;;;;;;;;;20.40;50.70;;;;;;1550990;75;1933;-68
2024/04/19 08:27:18;;;;;;;;;;;20.50;50.70;;;;;;1556846;74;693;-71
2024/04/19 08:29:20;;;;;;;;;;;20.40;50.70;;;;;;1555618;74;1174;-69
2024/04/19 08:31:22;;;;;;;;;;;20.40;50.60;;;;;;1555782;75;743;-70
2024/04/19 08:33:24;;;;;;;;;;;20.40;50.60;;;;;;1557608;75;743;-68
2024/04/19 08:35:26;;;;;;;;;;;20.40;50.50;;;;;;1555845;75;745;-69
2024/04/19 08:37:31;;;;;;;;;;;20.40;50.50;;;;;;1558989;74;913;-67
2024/04/19 08:39:32;;;;;;;;;;;20.40;50.60;;;;;;1554380;75;1708;-68
2024/04/19 08:41:33;;;;;;;;;;;20.50;50.60;;;;;;1554857;74;668;-68
2024/04/19 08:43:35;;;;;;;;;;;20.40;50.50;;;;;;1554743;75;813;-70
2024/04/19 08:45:37;;;;;;;;;;;20.40;50.50;;;;;;1550379;74;1942;-71
2024/04/19 08:47:39;;;;;;;;;;;20.40;50.50;;;;;;1555209;74;765;-68
2024/04/19 08:49:41;;;;;;;;;;;20.50;50.50;;;;;;1554804;75;1158;-71
2024/04/19 08:51:43;;;;;;;;;;;20.40;50.40;;;;;;1554063;74;665;-72
2024/04/19 08:53:45;;;;;;;;;;;20.40;50.40;;;;;;1558087;75;1319;-68
2024/04/19 08:55:47;;;;;;;;;;;20.50;50.50;;;;;;1555674;75;673;-68
2024/04/19 08:57:49;;;;;;;;;;;20.40;50.40;;;;;;1551629;75;747;-68
2024/04/19 08:59:51;;;;;;;;;;;20.40;50.30;;;;;;1551913;74;1188;-70
2024/04/19 09:01:53;;;;;;;;;;;20.50;50.40;;;;;;1560817;74;651;-70
2024/04/19 09:03:54;;;;;;;;;;;20.50;50.40;;;;;;1548258;74;631;-73
2024/04/19 09:05:57;;;;;;;;;;;20.50;50.40;;;;;;1557695;75;1941;-68
2024/04/19 09:07:58;;;;;;;;;;;20.40;50.00;;;;;;1556810;74;1558;-69
2024/04/19 09:10:00;;;;;;;;;;;20.40;50.10;;;;;;1555590;74;1325;-67
2024/04/19 09:12:02;;;;;;;;;;;20.50;50.20;;;;;;1553445;74;1308;-69
2024/04/19 09:14:04;;;;;;;;;;;20.40;50.10;;;;;;1556332;74;1099;-69
2024/04/19 09:16:06;;;;;;;;;;;20.40;50.10;;;;;;1554248;74;1097;-68
2024/04/19 09:18:08;;;;;;;;;;;20.50;50.20;;;;;;1557187;75;1348;-68
2024/04/19 09:20:10;;;;;;;;;;;20.40;50.10;;;;;;1553304;75;1312;-70
2024/04/19 09:22:12;;;;;;;;;;;20.40;50.10;;;;;;1553993;75;1544;-70
2024/04/19 09:24:16;;;;;;;;;;;20.40;50.10;;;;;;1551856;75;1954;-67
2024/04/19 09:26:19;;;;;;;;;;;20.40;50.10;;;;;;1555709;74;944;-70
2024/04/19 09:28:22;;;;;;;;;;;20.40;50.00;;;;;;1558923;75;675;-69
2024/04/19 09:30:24;;;;;;;;;;;20.50;50.10;;;;;;1555111;75;1196;-68
2024/04/19 09:32:27;;;;;;;;;;;20.40;50.00;;;;;;1558846;74;758;-68
2024/04/19 09:34:29;;;;;;;;;;;20.40;50.00;;;;;;1557132;74;758;-69
2024/04/19 09:36:32;;;;;;;;;;;20.40;50.00;;;;;;1550886;74;1571;-68
2024/04/19 09:38:35;;;;;;;;;;;20.40;50.00;;;;;;1553930;74;763;-68
2024/04/19 09:40:37;;;;;;;;;;;20.40;49.90;;;;;;1558523;74;1161;-71
2024/04/19 09:42:39;;;;;;;;;;;20.40;49.90;;;;;;1555396;75;800;-68
2024/04/19 09:44:41;;;;;;;;;;;20.40;49.90;;;;;;1559928;76;1946;-71
2024/04/19 09:46:45;;;;;;;;;;;20.40;49.90;;;;;;1547745;75;693;-67
2024/04/19 09:48:48;;;;;;;;;;;20.40;49.90;;;;;;1559080;74;1841;-68
2024/04/19 09:50:49;;;;;;;;;;;20.40;49.80;;;;;;1552972;75;1523;-68
2024/04/19 09:52:51;;;;;;;;;;;20.40;49.80;;;;;;1551779;74;697;-68
2024/04/19 09:54:58;;;;;;;;;;;20.40;49.80;;;;;;1555845;75;808;-68
2024/04/19 09:57:00;;;;;;;;;;;20.40;49.80;;;;;;1549503;74;1040;-68
2024/04/19 09:59:02;;;;;;;;;;;20.40;49.80;;;;;;1548413;75;795;-67
2024/04/19 10:01:04;;;;;;;;;;;20.40;49.80;;;;;;1551879;75;1145;-66
2024/04/19 10:03:11;;;;;;;;;;;20.40;49.80;;;;;;1557869;74;950;-67
2024/04/19 10:05:09;;;;;;;;;;;20.40;49.80;;;;;;1557708;75;1925;-68
2024/04/19 10:07:11;;;;;;;;;;;20.40;49.80;;;;;;1559470;75;742;-71
2024/04/19 10:09:17;;;;;;;;;;;20.40;49.70;;;;;;1551844;74;789;-67
2024/04/19 10:11:19;;;;;;;;;;;20.50;49.90;;;;;;1549261;75;674;-67
2024/04/19 10:13:24;;;;;;;;;;;20.40;49.70;;;;;;1553227;74;689;-67
2024/04/19 10:15:25;;;;;;;;;;;20.40;49.70;;;;;;1558625;75;1494;-69
2024/04/19 10:17:27;;;;;;;;;;;20.40;49.70;;;;;;1559748;75;775;-67
2024/04/19 10:19:33;;;;;;;;;;;20.50;49.70;;;;;;1548288;74;1768;-67
2024/04/19 10:21:42;;;;;;;;;;;20.40;49.70;;;;;;1561351;74;1604;-68
2024/04/19 10:23:43;;;;;;;;;;;20.50;50.00;;;;;;1554060;74;676;-73
2024/04/19 10:25:50;;;;;;;;;;;20.40;49.80;;;;;;1524536;76;1943;-67
2024/04/19 10:27:50;;;;;;;;;;;20.50;49.80;;;;;;1549752;74;903;-66
2024/04/19 10:29:52;;;;;;;;;;;20.50;49.70;;;;;;1559109;75;1150;-68
2024/04/19 10:31:55;;;;;;;;;;;20.50;49.70;;;;;;1558428;74;1566;-67
2024/04/19 10:33:57;;;;;;;;;;;20.50;49.70;;;;;;1555093;74;689;-68
2024/04/19 10:35:58;;;;;;;;;;;20.40;49.60;;;;;;1562078;75;764;-68
2024/04/19 10:38:01;;;;;;;;;;;20.40;49.40;;;;;;1557415;74;731;-69
2024/04/19 10:40:05;;;;;;;;;;;20.50;49.60;;;;;;1551373;74;1144;-70
2024/04/19 10:42:08;;;;;;;;;;;20.50;49.60;;;;;;1555916;74;740;-68
2024/04/19 10:44:12;;;;;;;;;;;20.50;49.50;;;;;;1553664;74;725;-69
2024/04/19 10:46:19;;;;;;;;;;;20.40;49.40;;;;;;1553809;74;1920;-69
2024/04/19 10:48:20;;;;;;;;;;;20.40;49.40;;;;;;1553492;74;1245;-72
2024/04/19 10:50:22;;;;;;;;;;;20.50;49.40;;;;;;1555178;75;1649;-67
2024/04/19 10:52:23;;;;;;;;;;;20.50;49.50;;;;;;1558144;74;713;-68
2024/04/19 10:54:26;;;;;;;;;;;20.40;49.30;;;;;;1556496;74;814;-71
2024/04/19 10:56:27;;;;;;;;;;;20.40;49.30;;;;;;1555991;74;707;-67
2024/04/19 10:58:29;;;;;;;;;;;20.50;49.40;;;;;;1558844;75;743;-68
2024/04/19 11:00:31;;;;;;;;;;;20.50;49.40;;;;;;1546981;74;1287;-69
2024/04/19 11:02:33;;;;;;;;;;;20.50;49.40;;;;;;1557295;74;764;-72
2024/04/19 11:04:35;;;;;;;;;;;20.40;49.20;;;;;;1557612;74;711;-70
2024/04/19 11:06:38;;;;;;;;;;;20.40;49.30;;;;;;1559619;74;1947;-70
2024/04/19 11:08:40;;;;;;;;;;;20.50;49.40;;;;;;1555705;75;812;-69
2024/04/19 11:10:42;;;;;;;;;;;20.40;49.30;;;;;;1559937;74;1143;-70
2024/04/19 11:12:44;;;;;;;;;;;20.50;49.40;;;;;;1544093;74;829;-70
2024/04/19 11:14:45;;;;;;;;;;;20.50;49.40;;;;;;1550699;74;1556;-66
2024/04/19 11:16:48;;;;;;;;;;;20.40;49.20;;;;;;1557966;74;715;-67
2024/04/19 11:18:49;;;;;;;;;;;20.40;49.20;;;;;;1561262;74;780;-67
2024/04/19 11:20:51;;;;;;;;;;;20.70;49.40;;;;;;1549465;74;1338;-69
2024/04/19 11:22:55;;;;;;;;;;;20.40;49.20;;;;;;1548310;74;830;-66
2024/04/19 11:24:58;;;;;;;;;;;20.40;49.30;;;;;;1554050;74;1938;-68
2024/04/19 11:27:00;;;;;;;;;;;20.40;49.30;;;;;;1552103;75;853;-69
2024/04/19 11:29:02;;;;;;;;;;;20.50;49.40;;;;;;1556408;74;1552;-69
2024/04/19 11:31:10;;;;;;;;;;;20.40;49.30;;;;;;1552974;74;1094;-67
2024/04/19 11:33:12;;;;;;;;;;;20.40;49.20;;;;;;1556491;74;692;-67
2024/04/19 11:35:14;;;;;;;;;;;20.40;49.30;;;;;;1555278;74;647;-67
2024/04/19 11:37:16;;;;;;;;;;;20.50;49.30;;;;;;1528387;76;1064;-70
2024/04/19 11:39:19;;;;;;;;;;;20.40;49.20;;;;;;1557360;74;1114;-68
2024/04/19 11:41:21;;;;;;;;;;;20.40;49.20;;;;;;1557111;74;743;-69
2024/04/19 11:43:23;;;;;;;;;;;20.50;49.30;;;;;;1550809;74;1538;-67
2024/04/19 11:45:25;;;;;;;;;;;20.40;49.30;;;;;;1554982;74;1930;-67
2024/04/19 11:47:27;;;;;;;;;;;20.40;49.20;;;;;;1551957;74;600;-67
2024/04/19 11:49:29;;;;;;;;;;;20.50;49.30;;;;;;1557251;74;1331;-67
2024/04/19 11:51:31;;;;;;;;;;;20.50;49.30;;;;;;1554611;74;765;-68
2024/04/19 11:53:33;;;;;;;;;;;20.50;49.30;;;;;;1554679;74;642;-66
2024/04/19 11:55:35;;;;;;;;;;;20.40;49.20;;;;;;1548602;74;682;-67
2024/04/19 11:57:37;;;;;;;;;;;20.40;49.20;;;;;;1551481;74;1582;-70
2024/04/19 11:59:39;;;;;;;;;;;20.40;49.20;;;;;;1548541;75;1144;-69
2024/04/19 12:01:41;;;;;;;;;;;20.40;49.20;;;;;;1563182;74;709;-68
2024/04/19 12:03:42;;;;;;;;;;;20.40;49.20;;;;;;1548301;74;692;-67
2024/04/19 12:05:44;;;;;;;;;;;20.50;49.20;;;;;;1557115;75;1936;-68
2024/04/19 12:07:47;;;;;;;;;;;20.40;49.20;;;;;;1552400;74;693;-70
2024/04/19 12:09:48;;;;;;;;;;;20.50;49.30;;;;;;1551757;74;1150;-67
2024/04/19 12:11:51;;;;;;;;;;;20.40;49.20;;;;;;1549226;75;1523;-67
2024/04/19 12:13:54;;;;;;;;;;;20.40;49.20;;;;;;1555741;75;819;-66
2024/04/19 12:15:56;;;;;;;;;;;20.40;49.20;;;;;;1560988;75;808;-67